Time;durP1;ratioP1;P1;durP2;ratioP2;P2;SDS_P1;SDS_P2;PMS_P1;PMS_P2;Temp;Humidity;BMP_temperature;BMP_pressure;BME280_temperature;BME280_humidity;BME280_pressure;Samples;Min_cycle;Max_cycle;Signal;HPM_P1;HPM_P2
2023/04/19 00:02:22;;;;;;;;;;;7.70;99.90;;;;;;4977295;28;19926;-85
2023/04/19 00:04:48;;;;;;;;;;;7.70;99.90;;;;;;4976914;28;19927;-84
2023/04/19 00:07:13;;;;;;;;;;;7.70;99.90;;;;;;4960819;28;19932;-85
2023/04/19 00:09:39;;;;;;;;;;;7.60;99.90;;;;;;4976508;28;20297;-85
2023/04/19 00:12:05;;;;;;;;;;;7.60;99.90;;;;;;4976789;28;19977;-85
2023/04/19 00:14:30;;;;;;;;;;;7.60;99.90;;;;;;4976779;28;19930;-85
2023/04/19 00:16:56;;;;;;;;;;;7.60;99.90;;;;;;4976748;28;19949;-85
2023/04/19 00:19:22;;;;;;;;;;;7.60;99.90;;;;;;4976678;28;19930;-85
2023/04/19 00:21:48;;;;;;;;;;;7.70;99.90;;;;;;4976383;28;19934;-87
2023/04/19 00:24:13;;;;;;;;;;;7.60;99.90;;;;;;4960365;28;20418;-87
2023/04/19 00:26:39;;;;;;;;;;;7.50;99.90;;;;;;4977365;28;19930;-87
2023/04/19 00:29:04;;;;;;;;;;;7.50;99.90;;;;;;4976769;28;19926;-86
2023/04/19 00:31:30;;;;;;;;;;;7.50;99.90;;;;;;4976075;28;19930;-86
2023/04/19 00:33:56;;;;;;;;;;;7.50;99.90;;;;;;4976639;28;19939;-86
2023/04/19 00:36:22;;;;;;;;;;;7.50;99.90;;;;;;4960549;28;19930;-87
2023/04/19 00:38:50;;;;;;;;;;;7.60;99.90;;;;;;4991903;28;19933;-86
2023/04/19 00:41:16;;;;;;;;;;;7.50;99.90;;;;;;4976395;28;19926;-86
2023/04/19 00:43:41;;;;;;;;;;;7.50;99.90;;;;;;4960110;28;19926;-86
2023/04/19 00:46:07;;;;;;;;;;;7.50;99.90;;;;;;4976226;28;20388;-87
2023/04/19 00:48:35;;;;;;;;;;;7.40;99.90;;;;;;4976132;28;19926;-86
2023/04/19 00:51:00;;;;;;;;;;;7.50;99.90;;;;;;4976058;28;19969;-86
2023/04/19 00:53:26;;;;;;;;;;;7.50;99.90;;;;;;4975991;28;20346;-87
2023/04/19 00:55:53;;;;;;;;;;;7.40;99.90;;;;;;4959895;28;20026;-86
2023/04/19 00:58:18;;;;;;;;;;;7.30;99.90;;;;;;4976387;28;20381;-86
2023/04/19 01:00:44;;;;;;;;;;;7.40;99.90;;;;;;4975963;28;19926;-86
2023/04/19 01:03:10;;;;;;;;;;;7.40;99.90;;;;;;4975878;28;19926;-87
2023/04/19 01:05:35;;;;;;;;;;;7.40;99.90;;;;;;4975867;28;20386;-87
2023/04/19 01:08:01;;;;;;;;;;;7.30;99.90;;;;;;4975729;28;19977;-88
2023/04/19 01:10:27;;;;;;;;;;;7.40;99.90;;;;;;4976556;28;19926;-87
2023/04/19 01:12:52;;;;;;;;;;;7.40;99.90;;;;;;4975603;28;20366;-87
2023/04/19 01:15:18;;;;;;;;;;;7.40;99.90;;;;;;4975952;28;20377;-87
2023/04/19 01:17:43;;;;;;;;;;;7.40;99.90;;;;;;4975647;28;19933;-86
2023/04/19 01:20:10;;;;;;;;;;;7.30;99.90;;;;;;4975615;28;19930;-87
2023/04/19 01:22:39;;;;;;;;;;;7.20;99.90;;;;;;4975557;28;19926;-86
2023/04/19 01:25:05;;;;;;;;;;;7.20;99.90;;;;;;4974999;28;20008;-86
2023/04/19 01:27:31;;;;;;;;;;;7.20;99.90;;;;;;4975403;28;19930;-86
2023/04/19 01:29:57;;;;;;;;;;;7.30;99.90;;;;;;4975689;28;19927;-87
2023/04/19 01:32:25;;;;;;;;;;;7.20;99.90;;;;;;4958419;28;19933;-86
2023/04/19 01:34:51;;;;;;;;;;;7.20;99.90;;;;;;4976016;28;19930;-86
2023/04/19 01:37:16;;;;;;;;;;;7.30;99.90;;;;;;4975241;28;19933;-86
2023/04/19 01:39:42;;;;;;;;;;;7.30;99.90;;;;;;4975359;28;19926;-85
2023/04/19 01:42:07;;;;;;;;;;;7.20;99.90;;;;;;4975993;28;19930;-86
2023/04/19 01:44:35;;;;;;;;;;;7.20;99.90;;;;;;4975121;28;19926;-86
2023/04/19 01:47:01;;;;;;;;;;;7.10;99.90;;;;;;4975121;28;19926;-86
2023/04/19 01:49:26;;;;;;;;;;;7.20;99.90;;;;;;4974977;28;19933;-86
2023/04/19 01:51:52;;;;;;;;;;;7.10;99.90;;;;;;4975112;28;19972;-86
2023/04/19 01:54:17;;;;;;;;;;;7.00;99.90;;;;;;4974831;28;20394;-87
2023/04/19 01:56:43;;;;;;;;;;;7.00;99.90;;;;;;4974847;28;20013;-86
2023/04/19 01:59:09;;;;;;;;;;;6.90;99.90;;;;;;4974143;28;19926;-86
2023/04/19 02:01:34;;;;;;;;;;;7.00;99.90;;;;;;4991288;28;20004;-86
2023/04/19 02:04:01;;;;;;;;;;;7.20;99.90;;;;;;4958674;28;19977;-86
2023/04/19 02:06:26;;;;;;;;;;;7.10;99.90;;;;;;4974837;28;20028;-86
2023/04/19 02:08:52;;;;;;;;;;;7.00;99.90;;;;;;4974650;28;20426;-87
2023/04/19 02:11:18;;;;;;;;;;;6.90;99.90;;;;;;4974615;28;20025;-87
2023/04/19 02:13:43;;;;;;;;;;;6.90;99.90;;;;;;4974642;28;20367;-86
2023/04/19 02:16:09;;;;;;;;;;;6.90;99.90;;;;;;4974736;28;19976;-86
2023/04/19 02:18:39;;;;;;;;;;;6.90;99.90;;;;;;4974595;28;20024;-86
2023/04/19 02:21:05;;;;;;;;;;;6.80;99.90;;;;;;4958757;28;19977;-86
2023/04/19 02:23:31;;;;;;;;;;;6.80;99.90;;;;;;4974671;28;19930;-87
2023/04/19 02:25:56;;;;;;;;;;;6.70;99.90;;;;;;4974744;28;19933;-87
2023/04/19 02:28:22;;;;;;;;;;;6.70;99.90;;;;;;4958395;28;19984;-86
2023/04/19 02:30:48;;;;;;;;;;;6.70;99.90;;;;;;4974480;28;19926;-87
2023/04/19 02:33:13;;;;;;;;;;;6.60;99.90;;;;;;4958536;28;20266;-87
2023/04/19 02:35:39;;;;;;;;;;;6.60;99.90;;;;;;4958580;28;19930;-86
2023/04/19 02:38:04;;;;;;;;;;;6.60;99.90;;;;;;4974316;28;19926;-87
2023/04/19 02:40:32;;;;;;;;;;;6.80;99.90;;;;;;4974617;28;20028;-85
2023/04/19 02:42:58;;;;;;;;;;;6.50;99.90;;;;;;4974267;28;19973;-87
2023/04/19 02:45:24;;;;;;;;;;;6.40;99.90;;;;;;4978054;28;19926;-85
2023/04/19 02:47:49;;;;;;;;;;;6.70;99.90;;;;;;4978474;28;19933;-87
2023/04/19 02:50:15;;;;;;;;;;;7.50;99.90;;;;;;4978285;28;19926;-86
2023/04/19 02:52:41;;;;;;;;;;;6.30;99.90;;;;;;4977906;28;19933;-86
2023/04/19 02:55:06;;;;;;;;;;;6.40;99.90;;;;;;4961814;28;20086;-85
2023/04/19 02:57:32;;;;;;;;;;;6.30;99.90;;;;;;4978585;28;19926;-85
2023/04/19 02:59:58;;;;;;;;;;;6.40;99.90;;;;;;4977635;28;19933;-86
2023/04/19 03:02:24;;;;;;;;;;;6.30;99.90;;;;;;4995062;28;20021;-86
2023/04/19 03:04:49;;;;;;;;;;;6.20;99.90;;;;;;4977970;28;19930;-86
2023/04/19 03:07:15;;;;;;;;;;;6.20;99.90;;;;;;4977965;28;20455;-86
2023/04/19 03:09:41;;;;;;;;;;;6.50;99.90;;;;;;4977680;28;19926;-86
2023/04/19 03:12:07;;;;;;;;;;;6.20;99.90;;;;;;4977713;28;20259;-86
2023/04/19 03:14:33;;;;;;;;;;;6.20;99.90;;;;;;4961983;28;19934;-86
2023/04/19 03:16:58;;;;;;;;;;;6.10;99.90;;;;;;4961996;28;20386;-86
2023/04/19 03:19:24;;;;;;;;;;;6.10;99.90;;;;;;4977655;28;19988;-87
2023/04/19 03:21:52;;;;;;;;;;;6.10;99.90;;;;;;4961571;28;19965;-85
2023/04/19 03:24:19;;;;;;;;;;;6.10;99.90;;;;;;4977497;28;20442;-86
2023/04/19 03:26:44;;;;;;;;;;;6.00;99.90;;;;;;4978254;28;19926;-85
2023/04/19 03:29:10;;;;;;;;;;;6.20;99.90;;;;;;4978312;28;20381;-86
2023/04/19 03:31:36;;;;;;;;;;;6.00;99.90;;;;;;4977656;28;19949;-86
2023/04/19 03:34:01;;;;;;;;;;;5.90;99.90;;;;;;4977535;28;20034;-85
2023/04/19 03:36:27;;;;;;;;;;;6.20;99.90;;;;;;4977499;28;19977;-86
2023/04/19 03:38:53;;;;;;;;;;;5.80;99.90;;;;;;4977336;28;19933;-85
2023/04/19 03:41:18;;;;;;;;;;;6.70;99.90;;;;;;4961577;28;20025;-86
2023/04/19 03:43:44;;;;;;;;;;;5.90;99.90;;;;;;4977579;28;19933;-86
2023/04/19 03:46:10;;;;;;;;;;;5.80;99.90;;;;;;4961287;28;19926;-86
2023/04/19 03:48:35;;;;;;;;;;;5.80;99.90;;;;;;4960983;28;20001;-86
2023/04/19 03:51:01;;;;;;;;;;;5.90;99.90;;;;;;4977116;28;19959;-86
2023/04/19 03:53:26;;;;;;;;;;;5.80;99.90;;;;;;4977076;28;19952;-86
2023/04/19 03:55:52;;;;;;;;;;;5.70;99.90;;;;;;4976744;28;20296;-86
2023/04/19 03:58:17;;;;;;;;;;;5.70;99.90;;;;;;4960917;28;20027;-86
2023/04/19 04:00:43;;;;;;;;;;;5.60;99.90;;;;;;4976849;28;19941;-86
2023/04/19 04:03:09;;;;;;;;;;;7.50;99.90;;;;;;4960912;28;19937;-86
2023/04/19 04:05:34;;;;;;;;;;;5.60;99.90;;;;;;4977304;28;19932;-86
2023/04/19 04:08:00;;;;;;;;;;;5.50;99.90;;;;;;4976878;28;20363;-87
2023/04/19 04:10:25;;;;;;;;;;;5.50;99.90;;;;;;4977151;28;19926;-86
2023/04/19 04:12:51;;;;;;;;;;;5.50;99.90;;;;;;4977336;28;19933;-87
2023/04/19 04:15:17;;;;;;;;;;;5.50;99.90;;;;;;4976788;28;19985;-86
2023/04/19 04:17:42;;;;;;;;;;;5.60;99.90;;;;;;4977038;28;19934;-86
2023/04/19 04:20:08;;;;;;;;;;;5.50;99.90;;;;;;4976665;28;19932;-86
2023/04/19 04:22:34;;;;;;;;;;;5.40;99.90;;;;;;4976387;28;20437;-86
2023/04/19 04:25:02;;;;;;;;;;;5.40;99.90;;;;;;4976724;28;20009;-86
2023/04/19 04:27:28;;;;;;;;;;;5.40;99.90;;;;;;4977400;28;19977;-86
2023/04/19 04:29:55;;;;;;;;;;;5.40;99.90;;;;;;4976569;28;20409;-86
2023/04/19 04:32:21;;;;;;;;;;;5.40;99.90;;;;;;4976265;28;19997;-86
2023/04/19 04:34:47;;;;;;;;;;;5.30;99.90;;;;;;4976496;28;19926;-86
2023/04/19 04:37:13;;;;;;;;;;;5.60;99.90;;;;;;4976446;28;19933;-86
2023/04/19 04:39:38;;;;;;;;;;;5.20;99.90;;;;;;4960117;28;19930;-86
2023/04/19 04:42:07;;;;;;;;;;;5.20;99.90;;;;;;4977190;28;19934;-86
2023/04/19 04:44:34;;;;;;;;;;;5.20;99.90;;;;;;4976228;28;19933;-86
2023/04/19 04:47:00;;;;;;;;;;;6.50;99.90;;;;;;4976577;28;19926;-86
2023/04/19 04:49:25;;;;;;;;;;;5.20;99.90;;;;;;4976055;28;19926;-86
2023/04/19 04:51:51;;;;;;;;;;;5.20;99.90;;;;;;4976027;28;19942;-85
2023/04/19 04:54:16;;;;;;;;;;;5.70;99.90;;;;;;4976737;28;20008;-86
2023/04/19 04:56:42;;;;;;;;;;;5.20;99.90;;;;;;4975986;28;19930;-86
2023/04/19 04:59:08;;;;;;;;;;;5.50;99.90;;;;;;4975477;28;20258;-86
2023/04/19 05:01:33;;;;;;;;;;;5.20;99.90;;;;;;4992576;28;19926;-86
2023/04/19 05:03:59;;;;;;;;;;;5.20;99.90;;;;;;4975883;28;19953;-86
2023/04/19 05:06:25;;;;;;;;;;;5.20;99.90;;;;;;4975831;28;19927;-85
2023/04/19 05:08:50;;;;;;;;;;;5.30;99.90;;;;;;4974886;28;19926;-87
2023/04/19 05:11:16;;;;;;;;;;;5.40;99.90;;;;;;4959901;28;19926;-86
2023/04/19 05:13:42;;;;;;;;;;;5.30;99.90;;;;;;4975688;28;20362;-86
2023/04/19 05:16:07;;;;;;;;;;;5.60;99.90;;;;;;4975716;28;20013;-86
2023/04/19 05:18:33;;;;;;;;;;;5.40;99.90;;;;;;4975595;28;19926;-86
2023/04/19 05:20:59;;;;;;;;;;;5.40;99.90;;;;;;4975486;28;19938;-86
2023/04/19 05:23:24;;;;;;;;;;;5.40;99.90;;;;;;4975732;28;19927;-86
2023/04/19 05:25:50;;;;;;;;;;;5.60;99.90;;;;;;4975181;28;19933;-86
2023/04/19 05:28:15;;;;;;;;;;;5.50;99.90;;;;;;4975447;28;20282;-85
2023/04/19 05:30:41;;;;;;;;;;;5.50;99.90;;;;;;4975408;28;19980;-86
2023/04/19 05:33:06;;;;;;;;;;;5.60;99.90;;;;;;4958957;28;19933;-86
2023/04/19 05:35:32;;;;;;;;;;;5.80;99.90;;;;;;4975014;28;20378;-86
2023/04/19 05:37:58;;;;;;;;;;;5.60;99.90;;;;;;4959157;28;20008;-86
2023/04/19 05:40:23;;;;;;;;;;;5.60;99.90;;;;;;4974831;28;20007;-84
2023/04/19 05:42:49;;;;;;;;;;;5.70;99.90;;;;;;4975250;28;19937;-84
2023/04/19 05:45:15;;;;;;;;;;;6.10;99.90;;;;;;4975129;28;20367;-85
2023/04/19 05:47:41;;;;;;;;;;;5.90;99.90;;;;;;4958996;28;19926;-84
2023/04/19 05:50:06;;;;;;;;;;;5.90;99.90;;;;;;4975301;28;19952;-86
2023/04/19 05:52:40;;;;;;;;;;;6.00;99.90;;;;;;4974459;28;20394;-85
2023/04/19 05:55:05;;;;;;;;;;;6.10;99.90;;;;;;4975095;28;20311;-85
2023/04/19 05:57:31;;;;;;;;;;;6.10;99.90;;;;;;4974933;28;19926;-85
2023/04/19 05:59:57;;;;;;;;;;;6.10;99.90;;;;;;4974335;28;20402;-84
2023/04/19 06:02:22;;;;;;;;;;;6.20;99.90;;;;;;4990966;28;19926;-84
2023/04/19 06:04:48;;;;;;;;;;;6.30;99.90;;;;;;4975592;28;19942;-83
2023/04/19 06:07:13;;;;;;;;;;;6.40;99.90;;;;;;4974034;28;19941;-85
2023/04/19 06:09:39;;;;;;;;;;;6.40;99.90;;;;;;4975288;28;19951;-87
2023/04/19 06:12:05;;;;;;;;;;;6.40;99.90;;;;;;4974538;28;19929;-86
2023/04/19 06:14:30;;;;;;;;;;;6.40;99.90;;;;;;4957981;28;19922;-85
2023/04/19 06:16:56;;;;;;;;;;;6.40;99.90;;;;;;4974394;28;19926;-85
2023/04/19 06:19:22;;;;;;;;;;;6.40;99.90;;;;;;4974532;28;20329;-86
2023/04/19 06:21:48;;;;;;;;;;;6.40;99.90;;;;;;4973931;28;19926;-86
2023/04/19 06:24:13;;;;;;;;;;;6.60;99.90;;;;;;4974596;28;19926;-85
2023/04/19 06:26:39;;;;;;;;;;;6.60;99.90;;;;;;4974657;28;19926;-84
2023/04/19 06:29:05;;;;;;;;;;;7.70;99.90;;;;;;4973944;28;20320;-86
2023/04/19 06:31:31;;;;;;;;;;;6.80;99.90;;;;;;4973629;28;19926;-86
2023/04/19 06:33:57;;;;;;;;;;;6.90;99.90;;;;;;4973742;28;20417;-86
2023/04/19 06:36:22;;;;;;;;;;;6.80;99.90;;;;;;4973462;28;20025;-86
2023/04/19 06:38:48;;;;;;;;;;;6.90;99.90;;;;;;4989755;28;20080;-85
2023/04/19 06:41:14;;;;;;;;;;;6.90;99.90;;;;;;4957835;28;19929;-85
2023/04/19 06:43:41;;;;;;;;;;;7.00;99.90;;;;;;4974653;28;20263;-86
2023/04/19 06:46:07;;;;;;;;;;;7.00;99.90;;;;;;4973382;28;19985;-86
2023/04/19 06:48:33;;;;;;;;;;;7.10;99.90;;;;;;4974585;28;19926;-86
2023/04/19 06:50:59;;;;;;;;;;;7.20;99.90;;;;;;4957916;28;19930;-88
2023/04/19 06:53:26;;;;;;;;;;;7.20;99.90;;;;;;4973630;28;20262;-87
2023/04/19 06:55:59;;;;;;;;;;;7.20;99.90;;;;;;4973608;28;19926;-87
2023/04/19 06:58:25;;;;;;;;;;;7.20;99.90;;;;;;4973596;28;19981;-87
2023/04/19 07:00:51;;;;;;;;;;;7.40;99.90;;;;;;4956994;28;20330;-86
2023/04/19 07:03:17;;;;;;;;;;;7.30;99.90;;;;;;4974453;28;19941;-86
2023/04/19 07:05:42;;;;;;;;;;;7.40;99.90;;;;;;4973663;28;19977;-87
2023/04/19 07:08:08;;;;;;;;;;;7.50;99.90;;;;;;4975054;28;19930;-87
2023/04/19 07:10:33;;;;;;;;;;;7.50;99.90;;;;;;4973353;28;20366;-87
2023/04/19 07:12:59;;;;;;;;;;;7.60;99.90;;;;;;4973365;28;19926;-87
2023/04/19 07:15:25;;;;;;;;;;;7.70;99.90;;;;;;4973673;28;20406;-85
2023/04/19 07:17:50;;;;;;;;;;;7.80;99.90;;;;;;4973546;28;20362;-87
2023/04/19 07:20:16;;;;;;;;;;;7.90;99.90;;;;;;4973620;28;19926;-87
2023/04/19 07:22:42;;;;;;;;;;;7.90;99.90;;;;;;4973565;28;19933;-88
2023/04/19 07:25:07;;;;;;;;;;;8.00;99.90;;;;;;4957532;28;19970;-87
2023/04/19 07:27:33;;;;;;;;;;;8.10;99.90;;;;;;4973275;28;19926;-87
2023/04/19 07:29:59;;;;;;;;;;;6.80;99.90;;;;;;4973131;28;20334;-87
2023/04/19 07:32:24;;;;;;;;;;;8.20;99.90;;;;;;4977385;28;19977;-88
2023/04/19 07:34:50;;;;;;;;;;;9.90;99.90;;;;;;4960461;28;19942;-86
2023/04/19 07:37:16;;;;;;;;;;;8.30;99.90;;;;;;4961123;28;19973;-87
2023/04/19 07:39:41;;;;;;;;;;;8.30;99.90;;;;;;4977417;28;20000;-85
2023/04/19 07:42:07;;;;;;;;;;;8.30;99.90;;;;;;4960888;28;19926;-87
2023/04/19 07:44:33;;;;;;;;;;;8.30;99.90;;;;;;4977622;28;19926;-89
2023/04/19 07:46:58;;;;;;;;;;;8.40;99.90;;;;;;4976754;28;20281;-88
2023/04/19 07:49:24;;;;;;;;;;;8.50;99.90;;;;;;4960719;28;19976;-88
2023/04/19 07:51:50;;;;;;;;;;;8.70;99.90;;;;;;4977263;28;20085;-85
2023/04/19 07:54:16;;;;;;;;;;;8.80;99.90;;;;;;4976790;28;20342;-85
2023/04/19 07:56:42;;;;;;;;;;;8.80;99.90;;;;;;4976577;28;19976;-82
2023/04/19 07:59:07;;;;;;;;;;;8.80;99.90;;;;;;4991672;28;19926;-84
2023/04/19 08:01:33;;;;;;;;;;;8.80;99.90;;;;;;4976556;28;19933;-84
2023/04/19 08:03:59;;;;;;;;;;;8.80;99.90;;;;;;4976170;28;19934;-84
2023/04/19 08:06:25;;;;;;;;;;;8.90;99.90;;;;;;4977066;28;19926;-84
2023/04/19 08:08:51;;;;;;;;;;;9.00;99.90;;;;;;4976190;28;19949;-83
2023/04/19 08:11:17;;;;;;;;;;;9.00;99.90;;;;;;4975931;28;19961;-84
2023/04/19 08:13:43;;;;;;;;;;;8.90;99.90;;;;;;4976183;28;19926;-83
2023/04/19 08:16:08;;;;;;;;;;;9.20;99.90;;;;;;4976194;28;20342;-82
2023/04/19 08:18:34;;;;;;;;;;;9.30;99.90;;;;;;4976184;28;19932;-82
2023/04/19 08:21:00;;;;;;;;;;;9.30;99.90;;;;;;4976082;28;19969;-83
2023/04/19 08:23:26;;;;;;;;;;;9.80;99.90;;;;;;4976392;28;19972;-85
2023/04/19 08:25:51;;;;;;;;;;;9.30;99.90;;;;;;4991815;28;20329;-85
2023/04/19 08:28:17;;;;;;;;;;;9.40;99.90;;;;;;4960543;28;19930;-84
2023/04/19 08:30:43;;;;;;;;;;;9.40;99.90;;;;;;4976083;28;19934;-83
2023/04/19 08:33:09;;;;;;;;;;;9.60;99.90;;;;;;4975729;28;19951;-83
2023/04/19 08:35:36;;;;;;;;;;;9.70;99.90;;;;;;4975622;28;19933;-83
2023/04/19 08:38:03;;;;;;;;;;;9.70;99.90;;;;;;4991648;28;19930;-83
2023/04/19 08:40:29;;;;;;;;;;;9.50;99.90;;;;;;4976011;28;19937;-83
2023/04/19 08:42:55;;;;;;;;;;;9.60;99.90;;;;;;4976343;28;20305;-84
2023/04/19 08:45:22;;;;;;;;;;;9.60;99.90;;;;;;4959803;28;19933;-83
2023/04/19 08:47:47;;;;;;;;;;;9.80;99.90;;;;;;4975349;28;20062;-84
2023/04/19 08:50:13;;;;;;;;;;;10.00;99.90;;;;;;4975622;28;19933;-82
2023/04/19 08:52:39;;;;;;;;;;;9.90;99.90;;;;;;4976914;28;19930;-84
2023/04/19 08:55:06;;;;;;;;;;;10.00;99.40;;;;;;4975509;28;20017;-85
2023/04/19 08:57:31;;;;;;;;;;;10.20;97.90;;;;;;4975702;28;19926;-86
2023/04/19 08:59:57;;;;;;;;;;;10.10;98.80;;;;;;4991450;28;19938;-85
2023/04/19 09:02:23;;;;;;;;;;;10.10;99.50;;;;;;4975700;28;19933;-85
2023/04/19 09:04:48;;;;;;;;;;;10.20;98.50;;;;;;4960225;28;19953;-85
2023/04/19 09:07:24;;;;;;;;;;;10.40;97.60;;;;;;4975579;28;19981;-84
2023/04/19 09:10:06;;;;;;;;;;;10.40;98.70;;;;;;4975398;28;19926;-84
2023/04/19 09:12:33;;;;;;;;;;;10.50;98.90;;;;;;4959082;28;19926;-84
2023/04/19 09:15:00;;;;;;;;;;;10.60;97.80;;;;;;4975316;28;20259;-85
2023/04/19 09:17:25;;;;;;;;;;;10.70;97.00;;;;;;4959588;28;19926;-85
2023/04/19 09:19:51;;;;;;;;;;;10.70;96.70;;;;;;4974729;28;19926;-87
2023/04/19 09:22:17;;;;;;;;;;;10.70;95.70;;;;;;4959177;28;19926;-87
2023/04/19 09:24:45;;;;;;;;;;;10.80;94.80;;;;;;4974548;28;19926;-86
2023/04/19 09:27:11;;;;;;;;;;;10.90;93.70;;;;;;4974458;28;19926;-87
2023/04/19 09:29:39;;;;;;;;;;;11.00;92.50;;;;;;4974446;28;19941;-87
2023/04/19 09:32:05;;;;;;;;;;;11.00;91.90;;;;;;4974460;28;19934;-89
2023/04/19 09:34:30;;;;;;;;;;;11.10;91.30;;;;;;4974415;28;20422;-87
2023/04/19 09:36:56;;;;;;;;;;;11.10;90.40;;;;;;4975291;28;19926;-89
2023/04/19 09:39:30;;;;;;;;;;;11.20;90.20;;;;;;4974496;28;20366;-88
2023/04/19 09:41:59;;;;;;;;;;;11.30;86.20;;;;;;4974430;28;20317;-87
2023/04/19 09:44:24;;;;;;;;;;;11.30;86.20;;;;;;4974448;28;19926;-88
2023/04/19 09:46:51;;;;;;;;;;;11.40;85.30;;;;;;4974206;28;19927;-85
2023/04/19 09:49:18;;;;;;;;;;;11.50;84.20;;;;;;4974777;28;19926;-88
2023/04/19 09:51:47;;;;;;;;;;;11.50;83.70;;;;;;4975233;28;19973;-86
2023/04/19 09:54:14;;;;;;;;;;;11.70;84.10;;;;;;4958262;28;19927;-86
2023/04/19 09:56:40;;;;;;;;;;;11.90;81.20;;;;;;4974206;28;19933;-86
2023/04/19 09:59:06;;;;;;;;;;;11.90;79.50;;;;;;4973601;28;20383;-86
2023/04/19 10:01:37;;;;;;;;;;;12.00;76.20;;;;;;4990728;28;20315;-84
2023/04/19 10:04:06;;;;;;;;;;;11.90;75.50;;;;;;4975000;28;19933;-84
2023/04/19 10:06:33;;;;;;;;;;;12.00;77.20;;;;;;4974918;28;19926;-84
2023/04/19 10:09:03;;;;;;;;;;;12.10;77.10;;;;;;4989783;28;19930;-84
2023/04/19 10:11:37;;;;;;;;;;;12.10;76.40;;;;;;4973698;28;20013;-84
2023/04/19 10:14:07;;;;;;;;;;;12.10;77.20;;;;;;4973543;28;19977;-85
2023/04/19 10:16:33;;;;;;;;;;;12.10;79.20;;;;;;4975019;28;20406;-84
2023/04/19 10:19:01;;;;;;;;;;;12.10;78.10;;;;;;4974122;28;20405;-85
2023/04/19 10:21:27;;;;;;;;;;;12.10;77.90;;;;;;4974955;28;19926;-84
2023/04/19 10:23:53;;;;;;;;;;;12.20;79.80;;;;;;4974134;28;19926;-84
2023/04/19 10:26:18;;;;;;;;;;;12.30;81.80;;;;;;4973861;28;20001;-87
2023/04/19 10:28:44;;;;;;;;;;;12.40;80.60;;;;;;4974399;28;19930;-85
2023/04/19 10:31:13;;;;;;;;;;;12.60;79.70;;;;;;4973790;28;19933;-85
2023/04/19 10:33:39;;;;;;;;;;;12.70;76.30;;;;;;4973804;28;20336;-87
2023/04/19 10:36:07;;;;;;;;;;;12.90;74.00;;;;;;4989563;28;19926;-84
2023/04/19 10:38:52;;;;;;;;;;;12.70;75.90;;;;;;4957573;28;19927;-86
2023/04/19 10:41:18;;;;;;;;;;;12.60;75.60;;;;;;4973254;28;19927;-87
2023/04/19 10:44:07;;;;;;;;;;;12.70;75.40;;;;;;4973896;28;19926;-87
2023/04/19 10:46:34;;;;;;;;;;;12.80;72.90;;;;;;4973352;28;20029;-88
2023/04/19 10:49:00;;;;;;;;;;;12.70;73.30;;;;;;4973083;28;20021;-86
2023/04/19 10:51:26;;;;;;;;;;;12.70;73.30;;;;;;4958289;28;19926;-85
2023/04/19 10:53:59;;;;;;;;;;;12.80;74.50;;;;;;4973464;28;19980;-85
2023/04/19 10:56:31;;;;;;;;;;;12.80;74.20;;;;;;4973381;28;19926;-86
2023/04/19 10:59:06;;;;;;;;;;;12.90;75.10;;;;;;4973047;28;20389;-87
2023/04/19 11:01:32;;;;;;;;;;;13.00;75.50;;;;;;4973715;28;19926;-85
2023/04/19 11:03:58;;;;;;;;;;;13.10;76.90;;;;;;4973424;28;19981;-86
2023/04/19 11:06:26;;;;;;;;;;;13.20;74.60;;;;;;4975513;28;19973;-88
2023/04/19 11:08:55;;;;;;;;;;;13.10;74.60;;;;;;4977276;28;20286;-85
2023/04/19 11:11:21;;;;;;;;;;;13.10;75.90;;;;;;4977149;28;19938;-86
2023/04/19 11:13:47;;;;;;;;;;;13.10;75.80;;;;;;4976772;28;20366;-86
2023/04/19 11:16:15;;;;;;;;;;;13.10;75.70;;;;;;4960662;28;19926;-88
2023/04/19 11:18:40;;;;;;;;;;;13.30;74.90;;;;;;4976698;28;20385;-87
2023/04/19 11:21:06;;;;;;;;;;;13.40;73.70;;;;;;4977250;28;19926;-87
2023/04/19 11:23:32;;;;;;;;;;;13.40;72.10;;;;;;4976419;28;19930;-86
2023/04/19 11:25:57;;;;;;;;;;;13.10;73.40;;;;;;4976677;28;20318;-84
2023/04/19 11:28:23;;;;;;;;;;;13.20;73.20;;;;;;4976434;28;19926;-86
2023/04/19 11:30:49;;;;;;;;;;;13.40;71.10;;;;;;4976864;28;19945;-88
2023/04/19 11:33:18;;;;;;;;;;;13.30;75.00;;;;;;4960250;28;20350;-87
2023/04/19 11:35:43;;;;;;;;;;;13.40;71.90;;;;;;4976130;28;19926;-85
2023/04/19 11:38:11;;;;;;;;;;;13.30;73.10;;;;;;4976355;28;19989;-85
2023/04/19 11:40:40;;;;;;;;;;;13.20;73.30;;;;;;4976266;28;19926;-86
2023/04/19 11:43:06;;;;;;;;;;;15.40;74.60;;;;;;4976416;28;20337;-86
2023/04/19 11:45:33;;;;;;;;;;;13.20;73.70;;;;;;4976560;28;19973;-86
2023/04/19 11:47:59;;;;;;;;;;;13.40;73.40;;;;;;4959668;28;20323;-87
2023/04/19 11:50:36;;;;;;;;;;;13.30;73.50;;;;;;4976271;28;19941;-88
2023/04/19 11:53:31;;;;;;;;;;;13.20;73.30;;;;;;4975901;28;19934;-86
2023/04/19 11:56:03;;;;;;;;;;;13.40;72.80;;;;;;4959446;28;19941;-86
2023/04/19 11:58:31;;;;;;;;;;;13.30;73.60;;;;;;4976699;28;19995;-88
2023/04/19 12:01:05;;;;;;;;;;;13.30;75.00;;;;;;4975503;28;20371;-85
2023/04/19 12:03:31;;;;;;;;;;;13.40;75.70;;;;;;4977338;28;19932;-84
2023/04/19 12:05:58;;;;;;;;;;;13.40;75.80;;;;;;4975700;28;20028;-84
2023/04/19 12:08:37;;;;;;;;;;;13.60;74.50;;;;;;4960335;28;20010;-87
2023/04/19 12:11:03;;;;;;;;;;;13.60;75.70;;;;;;4977320;28;19988;-86
2023/04/19 12:13:30;;;;;;;;;;;13.80;77.20;;;;;;4975243;28;19929;-88
2023/04/19 12:15:55;;;;;;;;;;;13.80;75.20;;;;;;4975186;28;19946;-86
2023/04/19 12:18:24;;;;;;;;;;;13.90;74.70;;;;;;4975537;28;19927;-87
2023/04/19 12:20:50;;;;;;;;;;;13.90;77.00;;;;;;4959404;28;19933;-87
2023/04/19 12:23:17;;;;;;;;;;;13.90;75.00;;;;;;4975677;28;19926;-87
2023/04/19 12:25:47;;;;;;;;;;;13.80;73.00;;;;;;4975750;28;20275;-86
2023/04/19 12:28:14;;;;;;;;;;;13.80;73.00;;;;;;4975594;28;19984;-87
2023/04/19 12:30:40;;;;;;;;;;;13.60;74.80;;;;;;4975861;28;19930;-86
2023/04/19 12:33:06;;;;;;;;;;;13.60;74.50;;;;;;4975013;28;19969;-87
2023/04/19 12:35:32;;;;;;;;;;;13.50;75.90;;;;;;4959305;28;19981;-88
2023/04/19 12:37:58;;;;;;;;;;;13.50;77.80;;;;;;4974807;28;19933;-88
2023/04/19 12:40:25;;;;;;;;;;;13.60;76.00;;;;;;4975173;28;20013;-86
2023/04/19 12:42:51;;;;;;;;;;;13.70;75.50;;;;;;4975894;28;20342;-86
2023/04/19 12:45:17;;;;;;;;;;;13.70;76.40;;;;;;4975152;28;19973;-87
2023/04/19 12:47:42;;;;;;;;;;;13.70;76.70;;;;;;4976682;28;20009;-88
2023/04/19 12:50:08;;;;;;;;;;;13.70;77.20;;;;;;4958854;28;19926;-86
2023/04/19 12:52:34;;;;;;;;;;;13.80;76.80;;;;;;4975371;28;19981;-87
2023/04/19 12:55:00;;;;;;;;;;;13.80;75.80;;;;;;4974927;28;19941;-88
2023/04/19 12:57:26;;;;;;;;;;;13.70;75.60;;;;;;4974851;28;19927;-87
2023/04/19 12:59:54;;;;;;;;;;;13.80;76.90;;;;;;4974609;28;19926;-86
2023/04/19 13:02:20;;;;;;;;;;;13.70;78.70;;;;;;4974841;28;19933;-87
2023/04/19 13:04:45;;;;;;;;;;;13.60;77.10;;;;;;4975487;28;20312;-87
2023/04/19 13:07:11;;;;;;;;;;;13.60;78.30;;;;;;4974910;28;19926;-87
2023/04/19 13:09:37;;;;;;;;;;;13.50;80.50;;;;;;4974831;28;20098;-87
2023/04/19 13:12:05;;;;;;;;;;;13.90;78.90;;;;;;4974620;28;19926;-89
2023/04/19 13:14:31;;;;;;;;;;;13.80;78.60;;;;;;4974659;28;19927;-88
2023/04/19 13:16:57;;;;;;;;;;;13.70;78.10;;;;;;4974686;28;19933;-86
2023/04/19 13:19:22;;;;;;;;;;;13.60;77.30;;;;;;4975391;28;19926;-87
2023/04/19 13:21:48;;;;;;;;;;;13.70;76.30;;;;;;4974613;28;19930;-87
2023/04/19 13:24:14;;;;;;;;;;;13.50;76.80;;;;;;4974852;28;19926;-86
2023/04/19 13:26:39;;;;;;;;;;;13.50;79.10;;;;;;4974478;28;20274;-88
2023/04/19 13:29:07;;;;;;;;;;;13.70;79.80;;;;;;4973765;28;19969;-86
2023/04/19 13:31:32;;;;;;;;;;;13.60;81.70;;;;;;4974262;28;19941;-88
2023/04/19 13:33:59;;;;;;;;;;;13.70;84.40;;;;;;4973889;28;20024;-86
2023/04/19 13:36:26;;;;;;;;;;;13.70;86.90;;;;;;4974901;28;19992;-87
2023/04/19 13:38:51;;;;;;;;;;;13.70;86.30;;;;;;4974177;28;20358;-87
2023/04/19 13:41:17;;;;;;;;;;;13.80;84.50;;;;;;4974234;28;19926;-87
2023/04/19 13:43:43;;;;;;;;;;;13.70;87.10;;;;;;4974025;28;19926;-89
2023/04/19 13:46:08;;;;;;;;;;;13.60;85.80;;;;;;4974659;28;19938;-87
2023/04/19 13:48:34;;;;;;;;;;;13.40;88.00;;;;;;4974356;28;19926;-88
2023/04/19 13:50:59;;;;;;;;;;;13.40;88.90;;;;;;4973979;28;19926;-87
2023/04/19 13:53:26;;;;;;;;;;;13.40;86.40;;;;;;4973623;28;20025;-87
2023/04/19 13:55:51;;;;;;;;;;;13.40;87.40;;;;;;4957777;28;20002;-89
2023/04/19 13:58:17;;;;;;;;;;;13.40;88.80;;;;;;4974343;28;19966;-89
2023/04/19 14:00:43;;;;;;;;;;;13.50;86.40;;;;;;4973192;28;19926;-87
2023/04/19 14:03:09;;;;;;;;;;;13.50;87.10;;;;;;4957489;28;19937;-86
2023/04/19 14:05:35;;;;;;;;;;;13.40;89.20;;;;;;4973785;28;20021;-87
2023/04/19 14:08:00;;;;;;;;;;;13.60;88.20;;;;;;4974004;28;19933;-87
2023/04/19 14:10:26;;;;;;;;;;;13.50;88.70;;;;;;4973622;28;20366;-87
2023/04/19 14:12:52;;;;;;;;;;;13.60;87.60;;;;;;4973092;28;19943;-88
2023/04/19 14:15:19;;;;;;;;;;;13.60;87.60;;;;;;4973532;28;20016;-88
2023/04/19 14:17:47;;;;;;;;;;;13.50;90.10;;;;;;4973530;28;19926;-89
2023/04/19 14:20:12;;;;;;;;;;;13.60;89.10;;;;;;4973431;28;20270;-87
2023/04/19 14:22:38;;;;;;;;;;;13.60;86.90;;;;;;4974173;28;19930;-87